sensor_id;sensor_type;location;lat;lon;timestamp;P1;durP1;ratioP1;P2;durP2;ratioP2
8885;SDS011;4479;51.162;13.906;2023-05-10T00:10:01;1.93;;;1.70;;
8885;SDS011;4479;51.162;13.906;2023-05-10T00:20:05;1.60;;;1.50;;
8885;SDS011;4479;51.162;13.906;2023-05-10T00:30:08;1.80;;;1.60;;
8885;SDS011;4479;51.162;13.906;2023-05-10T00:40:13;1.63;;;1.53;;
8885;SDS011;4479;51.162;13.906;2023-05-10T00:50:20;2.00;;;1.70;;
8885;SDS011;4479;51.162;13.906;2023-05-10T01:00:24;1.57;;;1.47;;
8885;SDS011;4479;51.162;13.906;2023-05-10T01:10:27;2.90;;;1.60;;
8885;SDS011;4479;51.162;13.906;2023-05-10T01:20:32;1.97;;;1.70;;
8885;SDS011;4479;51.162;13.906;2023-05-10T01:30:47;1.67;;;1.57;;
8885;SDS011;4479;51.162;13.906;2023-05-10T01:41:12;2.50;;;1.60;;
8885;SDS011;4479;51.162;13.906;2023-05-10T01:51:16;3.50;;;1.57;;
8885;SDS011;4479;51.162;13.906;2023-05-10T02:01:24;1.50;;;1.40;;
8885;SDS011;4479;51.162;13.906;2023-05-10T02:11:28;1.80;;;1.60;;
8885;SDS011;4479;51.162;13.906;2023-05-10T02:21:32;2.20;;;1.70;;
8885;SDS011;4479;51.162;13.906;2023-05-10T02:31:35;3.10;;;1.53;;
8885;SDS011;4479;51.162;13.906;2023-05-10T02:41:40;1.60;;;1.50;;
8885;SDS011;4479;51.162;13.906;2023-05-10T02:51:44;1.70;;;1.57;;
8885;SDS011;4479;51.162;13.906;2023-05-10T03:01:49;2.23;;;1.63;;
8885;SDS011;4479;51.162;13.906;2023-05-10T03:11:54;1.63;;;1.53;;
8885;SDS011;4479;51.162;13.906;2023-05-10T03:22:02;2.97;;;1.47;;
8885;SDS011;4479;51.162;13.906;2023-05-10T03:32:09;2.03;;;1.70;;
8885;SDS011;4479;51.162;13.906;2023-05-10T03:42:13;2.20;;;1.43;;
8885;SDS011;4479;51.162;13.906;2023-05-10T03:52:18;1.93;;;1.60;;
8885;SDS011;4479;51.162;13.906;2023-05-10T04:02:23;2.13;;;1.73;;
8885;SDS011;4479;51.162;13.906;2023-05-10T04:12:25;1.93;;;1.60;;
8885;SDS011;4479;51.162;13.906;2023-05-10T04:22:29;1.87;;;1.50;;
8885;SDS011;4479;51.162;13.906;2023-05-10T04:32:32;1.70;;;1.50;;
8885;SDS011;4479;51.162;13.906;2023-05-10T04:42:36;1.60;;;1.50;;
8885;SDS011;4479;51.162;13.906;2023-05-10T04:52:42;6.63;;;1.70;;
8885;SDS011;4479;51.162;13.906;2023-05-10T05:02:46;3.67;;;1.70;;
8885;SDS011;4479;51.162;13.906;2023-05-10T05:12:48;3.70;;;1.73;;
8885;SDS011;4479;51.162;13.906;2023-05-10T05:22:52;1.67;;;1.30;;
8885;SDS011;4479;51.162;13.906;2023-05-10T05:32:54;3.37;;;1.80;;
8885;SDS011;4479;51.162;13.906;2023-05-10T05:42:58;2.60;;;1.60;;
8885;SDS011;4479;51.162;13.906;2023-05-10T05:53:01;1.80;;;1.70;;
8885;SDS011;4479;51.162;13.906;2023-05-10T06:03:04;3.17;;;1.53;;
8885;SDS011;4479;51.162;13.906;2023-05-10T06:13:07;2.00;;;1.70;;
8885;SDS011;4479;51.162;13.906;2023-05-10T06:23:11;2.83;;;1.63;;
8885;SDS011;4479;51.162;13.906;2023-05-10T06:33:15;2.00;;;1.80;;
8885;SDS011;4479;51.162;13.906;2023-05-10T06:43:20;2.07;;;1.80;;
8885;SDS011;4479;51.162;13.906;2023-05-10T06:53:26;3.00;;;1.67;;
8885;SDS011;4479;51.162;13.906;2023-05-10T07:03:32;3.97;;;1.80;;
8885;SDS011;4479;51.162;13.906;2023-05-10T07:13:43;2.33;;;1.77;;
8885;SDS011;4479;51.162;13.906;2023-05-10T07:23:50;2.10;;;1.90;;
8885;SDS011;4479;51.162;13.906;2023-05-10T07:33:53;2.90;;;2.00;;
8885;SDS011;4479;51.162;13.906;2023-05-10T07:44:03;4.13;;;2.00;;
8885;SDS011;4479;51.162;13.906;2023-05-10T07:54:16;1.83;;;1.73;;
8885;SDS011;4479;51.162;13.906;2023-05-10T08:04:20;2.23;;;1.83;;
8885;SDS011;4479;51.162;13.906;2023-05-10T08:14:23;3.67;;;1.90;;
8885;SDS011;4479;51.162;13.906;2023-05-10T08:24:30;1.80;;;1.70;;
8885;SDS011;4479;51.162;13.906;2023-05-10T08:34:40;1.90;;;1.80;;
8885;SDS011;4479;51.162;13.906;2023-05-10T08:45:02;1.90;;;1.80;;
8885;SDS011;4479;51.162;13.906;2023-05-10T08:55:06;1.60;;;1.50;;
8885;SDS011;4479;51.162;13.906;2023-05-10T09:05:09;1.90;;;1.80;;
8885;SDS011;4479;51.162;13.906;2023-05-10T09:15:12;1.93;;;1.83;;
8885;SDS011;4479;51.162;13.906;2023-05-10T09:25:20;2.03;;;1.80;;
8885;SDS011;4479;51.162;13.906;2023-05-10T09:35:24;1.90;;;1.80;;
8885;SDS011;4479;51.162;13.906;2023-05-10T09:45:29;2.00;;;1.80;;
8885;SDS011;4479;51.162;13.906;2023-05-10T09:55:38;3.07;;;1.90;;
8885;SDS011;4479;51.162;13.906;2023-05-10T10:05:43;1.90;;;1.80;;
8885;SDS011;4479;51.162;13.906;2023-05-10T10:15:46;3.23;;;1.97;;
8885;SDS011;4479;51.162;13.906;2023-05-10T10:25:52;1.90;;;1.77;;
8885;SDS011;4479;51.162;13.906;2023-05-10T10:35:55;4.60;;;2.00;;
8885;SDS011;4479;51.162;13.906;2023-05-10T10:46:14;1.97;;;1.80;;
8885;SDS011;4479;51.162;13.906;2023-05-10T10:56:17;2.53;;;2.10;;
8885;SDS011;4479;51.162;13.906;2023-05-10T11:06:29;2.33;;;2.17;;
8885;SDS011;4479;51.162;13.906;2023-05-10T11:16:40;2.30;;;2.10;;
8885;SDS011;4479;51.162;13.906;2023-05-10T11:26:45;2.50;;;2.20;;
8885;SDS011;4479;51.162;13.906;2023-05-10T11:36:50;2.30;;;2.10;;
8885;SDS011;4479;51.162;13.906;2023-05-10T11:46:55;1.73;;;1.63;;
8885;SDS011;4479;51.162;13.906;2023-05-10T11:57:00;2.43;;;2.23;;
8885;SDS011;4479;51.162;13.906;2023-05-10T12:07:03;2.20;;;2.07;;
8885;SDS011;4479;51.162;13.906;2023-05-10T12:17:05;2.97;;;1.93;;
8885;SDS011;4479;51.162;13.906;2023-05-10T12:27:17;3.77;;;2.37;;
8885;SDS011;4479;51.162;13.906;2023-05-10T12:37:23;2.27;;;2.07;;
8885;SDS011;4479;51.162;13.906;2023-05-10T12:58:42;2.60;;;2.33;;
8885;SDS011;4479;51.162;13.906;2023-05-10T13:08:53;2.00;;;1.90;;
8885;SDS011;4479;51.162;13.906;2023-05-10T13:18:59;2.27;;;2.07;;
8885;SDS011;4479;51.162;13.906;2023-05-10T13:29:06;2.20;;;2.00;;
8885;SDS011;4479;51.162;13.906;2023-05-10T13:39:31;1.97;;;1.87;;
8885;SDS011;4479;51.162;13.906;2023-05-10T13:49:37;2.70;;;2.00;;
8885;SDS011;4479;51.162;13.906;2023-05-10T13:59:55;1.90;;;1.80;;
8885;SDS011;4479;51.162;13.906;2023-05-10T14:20:27;1.93;;;1.80;;
8885;SDS011;4479;51.162;13.906;2023-05-10T14:30:33;5.23;;;2.17;;
8885;SDS011;4479;51.162;13.906;2023-05-10T14:40:38;2.10;;;2.00;;
8885;SDS011;4479;51.162;13.906;2023-05-10T14:50:40;2.73;;;1.70;;
8885;SDS011;4479;51.162;13.906;2023-05-10T15:00:44;2.40;;;2.20;;
8885;SDS011;4479;51.162;13.906;2023-05-10T15:10:47;2.43;;;2.23;;
8885;SDS011;4479;51.162;13.906;2023-05-10T15:20:51;3.63;;;2.20;;
8885;SDS011;4479;51.162;13.906;2023-05-10T15:30:54;2.40;;;2.00;;
8885;SDS011;4479;51.162;13.906;2023-05-10T15:40:58;2.60;;;2.40;;
8885;SDS011;4479;51.162;13.906;2023-05-10T15:51:04;3.73;;;3.43;;
8885;SDS011;4479;51.162;13.906;2023-05-10T16:01:08;3.07;;;2.30;;
8885;SDS011;4479;51.162;13.906;2023-05-10T16:11:19;2.33;;;2.13;;
8885;SDS011;4479;51.162;13.906;2023-05-10T16:21:24;1.97;;;1.80;;
8885;SDS011;4479;51.162;13.906;2023-05-10T16:31:26;2.40;;;2.20;;
8885;SDS011;4479;51.162;13.906;2023-05-10T16:41:44;2.13;;;1.97;;
8885;SDS011;4479;51.162;13.906;2023-05-10T16:51:48;2.40;;;2.00;;
8885;SDS011;4479;51.162;13.906;2023-05-10T17:01:52;2.70;;;2.23;;
8885;SDS011;4479;51.162;13.906;2023-05-10T17:11:56;2.53;;;1.83;;
8885;SDS011;4479;51.162;13.906;2023-05-10T17:22:00;2.00;;;1.90;;
8885;SDS011;4479;51.162;13.906;2023-05-10T17:53:32;1.80;;;1.53;;
8885;SDS011;4479;51.162;13.906;2023-05-10T18:03:37;1.57;;;1.47;;
8885;SDS011;4479;51.162;13.906;2023-05-10T18:13:41;3.40;;;2.10;;
8885;SDS011;4479;51.162;13.906;2023-05-10T18:23:44;1.77;;;1.67;;
8885;SDS011;4479;51.162;13.906;2023-05-10T18:33:48;1.80;;;1.70;;
8885;SDS011;4479;51.162;13.906;2023-05-10T18:43:50;2.07;;;1.97;;
8885;SDS011;4479;51.162;13.906;2023-05-10T18:53:57;3.10;;;1.90;;
8885;SDS011;4479;51.162;13.906;2023-05-10T19:04:01;2.47;;;2.27;;
8885;SDS011;4479;51.162;13.906;2023-05-10T19:14:07;4.10;;;3.70;;
8885;SDS011;4479;51.162;13.906;2023-05-10T19:24:13;2.53;;;2.33;;
8885;SDS011;4479;51.162;13.906;2023-05-10T19:34:17;2.63;;;2.40;;
8885;SDS011;4479;51.162;13.906;2023-05-10T19:44:20;2.67;;;2.27;;
8885;SDS011;4479;51.162;13.906;2023-05-10T19:54:24;2.70;;;2.50;;
8885;SDS011;4479;51.162;13.906;2023-05-10T20:04:26;2.90;;;2.63;;
8885;SDS011;4479;51.162;13.906;2023-05-10T20:14:30;3.07;;;2.13;;
8885;SDS011;4479;51.162;13.906;2023-05-10T20:24:32;2.50;;;2.30;;
8885;SDS011;4479;51.162;13.906;2023-05-10T20:34:36;2.40;;;2.20;;
8885;SDS011;4479;51.162;13.906;2023-05-10T20:44:38;2.53;;;2.33;;
8885;SDS011;4479;51.162;13.906;2023-05-10T20:54:42;2.87;;;2.27;;
8885;SDS011;4479;51.162;13.906;2023-05-10T21:04:44;3.63;;;2.30;;
8885;SDS011;4479;51.162;13.906;2023-05-10T21:14:48;3.00;;;2.43;;
8885;SDS011;4479;51.162;13.906;2023-05-10T21:24:51;2.67;;;2.47;;
8885;SDS011;4479;51.162;13.906;2023-05-10T21:34:54;3.23;;;2.63;;
8885;SDS011;4479;51.162;13.906;2023-05-10T21:44:57;3.87;;;2.80;;
8885;SDS011;4479;51.162;13.906;2023-05-10T21:55:00;2.33;;;2.13;;
8885;SDS011;4479;51.162;13.906;2023-05-10T22:05:03;2.60;;;2.40;;
8885;SDS011;4479;51.162;13.906;2023-05-10T22:15:08;2.57;;;2.37;;
8885;SDS011;4479;51.162;13.906;2023-05-10T22:25:11;2.50;;;2.30;;
8885;SDS011;4479;51.162;13.906;2023-05-10T22:35:14;2.50;;;2.30;;
8885;SDS011;4479;51.162;13.906;2023-05-10T22:45:17;3.10;;;2.17;;
8885;SDS011;4479;51.162;13.906;2023-05-10T22:55:20;1.90;;;1.80;;
8885;SDS011;4479;51.162;13.906;2023-05-10T23:05:23;2.87;;;2.23;;
8885;SDS011;4479;51.162;13.906;2023-05-10T23:15:27;4.67;;;2.30;;
8885;SDS011;4479;51.162;13.906;2023-05-10T23:25:32;3.33;;;2.13;;
8885;SDS011;4479;51.162;13.906;2023-05-10T23:35:36;2.17;;;1.97;;
8885;SDS011;4479;51.162;13.906;2023-05-10T23:45:39;2.17;;;1.97;;
8885;SDS011;4479;51.162;13.906;2023-05-10T23:55:45;5.80;;;2.40;;
